createdAt,value
2018-09-22T00:00:59.021Z,36.00
2018-09-22T00:03:27.135Z,35.90
2018-09-22T00:05:55.242Z,35.90
2018-09-22T00:08:23.358Z,36.00
2018-09-22T00:10:51.441Z,36.00
2018-09-22T00:13:19.760Z,36.10
2018-09-22T00:15:47.835Z,36.00
2018-09-22T00:18:15.949Z,36.10
2018-09-22T00:20:44.045Z,36.20
2018-09-22T00:23:12.191Z,36.20
2018-09-22T00:25:40.277Z,36.20
2018-09-22T00:28:08.367Z,36.30
2018-09-22T00:30:36.473Z,36.30
2018-09-22T00:33:04.747Z,36.30
2018-09-22T00:35:32.889Z,36.40
2018-09-22T00:38:00.965Z,36.50
2018-09-22T00:40:29.125Z,37.00
2018-09-22T00:42:57.256Z,36.40
2018-09-22T00:45:25.377Z,36.50
2018-09-22T00:47:53.474Z,36.60
2018-09-22T00:50:21.658Z,36.60
2018-09-22T00:52:49.745Z,36.60
2018-09-22T00:55:17.865Z,37.30
2018-09-22T00:57:45.966Z,36.70
2018-09-22T01:00:14.058Z,36.80
2018-09-22T01:02:42.142Z,36.80
2018-09-22T01:05:10.254Z,36.90
2018-09-22T01:07:38.350Z,36.90
2018-09-22T01:10:06.430Z,37.00
2018-09-22T01:12:34.567Z,37.00
2018-09-22T01:15:02.671Z,37.00
2018-09-22T01:17:30.774Z,37.00
2018-09-22T01:19:58.890Z,37.10
2018-09-22T01:22:27.041Z,37.10
2018-09-22T01:24:55.128Z,37.20
2018-09-22T01:27:23.283Z,37.10
2018-09-22T01:29:51.370Z,37.20
2018-09-22T01:32:19.458Z,37.20
2018-09-22T01:34:47.570Z,37.20
2018-09-22T01:37:15.685Z,37.40
2018-09-22T01:39:43.842Z,37.30
2018-09-22T01:42:11.965Z,37.30
2018-09-22T01:44:40.041Z,37.40
2018-09-22T01:47:08.168Z,37.40
2018-09-22T01:49:36.333Z,37.40
2018-09-22T01:52:04.413Z,37.40
2018-09-22T01:54:32.501Z,37.40
2018-09-22T01:57:00.572Z,37.50
2018-09-22T01:59:28.659Z,37.60
2018-09-22T02:01:56.788Z,37.60
2018-09-22T02:04:24.916Z,37.60
2018-09-22T02:06:53.005Z,37.60
2018-09-22T02:09:21.081Z,37.60
2018-09-22T02:11:50.170Z,37.60
2018-09-22T02:14:18.241Z,37.70
2018-09-22T02:16:46.314Z,38.30
2018-09-22T02:19:14.406Z,38.40
2018-09-22T02:21:42.510Z,37.80
2018-09-22T02:24:10.609Z,38.50
2018-09-22T02:26:38.693Z,37.80
2018-09-22T02:29:06.785Z,37.80
2018-09-22T02:31:34.869Z,37.80
2018-09-22T02:34:02.954Z,37.80
2018-09-22T02:36:31.069Z,37.80
2018-09-22T02:38:59.191Z,37.90
2018-09-22T02:41:27.320Z,37.90
2018-09-22T02:43:55.410Z,38.00
2018-09-22T02:46:23.561Z,38.00
2018-09-22T02:48:51.646Z,38.00
2018-09-22T02:51:19.760Z,38.00
2018-09-22T02:53:47.877Z,38.10
2018-09-22T02:56:15.977Z,38.10
2018-09-22T02:58:44.097Z,38.20
2018-09-22T03:01:12.201Z,38.20
2018-09-22T03:03:40.285Z,38.20
2018-09-22T03:06:08.401Z,38.20
2018-09-22T03:08:36.541Z,38.20
2018-09-22T03:11:04.621Z,38.20
2018-09-22T03:13:32.728Z,38.20
2018-09-22T03:16:00.822Z,38.30
2018-09-22T03:18:29.040Z,38.30
2018-09-22T03:20:57.105Z,38.30
2018-09-22T03:23:25.223Z,38.30
2018-09-22T03:25:53.287Z,38.40
2018-09-22T03:28:21.401Z,38.40
2018-09-22T03:30:49.743Z,38.40
2018-09-22T03:33:17.805Z,38.40
2018-09-22T03:35:45.901Z,38.40
2018-09-22T03:38:13.983Z,38.40
2018-09-22T03:40:42.103Z,38.40
2018-09-22T03:43:10.189Z,38.40
2018-09-22T03:45:38.315Z,38.50
2018-09-22T03:48:06.612Z,38.50
2018-09-22T03:50:34.686Z,38.50
2018-09-22T03:53:02.770Z,37.90
2018-09-22T03:55:30.849Z,38.50
2018-09-22T03:57:58.937Z,38.50
2018-09-22T04:00:27.116Z,38.50
2018-09-22T04:02:55.186Z,38.50
2018-09-22T04:05:23.267Z,38.60
2018-09-22T04:07:51.388Z,38.60
2018-09-22T04:10:19.471Z,38.50
2018-09-22T04:12:47.589Z,38.60
2018-09-22T04:15:15.726Z,38.70
2018-09-22T04:17:43.819Z,38.70
2018-09-22T04:20:11.934Z,38.70
2018-09-22T04:22:40.037Z,38.80
2018-09-22T04:25:08.246Z,38.70
2018-09-22T04:27:36.345Z,38.80
2018-09-22T04:30:04.694Z,38.80
2018-09-22T04:32:32.777Z,38.80
2018-09-22T04:35:00.942Z,38.80
2018-09-22T04:37:29.013Z,38.80
2018-09-22T04:39:57.100Z,38.90
2018-09-22T04:42:25.190Z,38.90
2018-09-22T04:44:53.298Z,38.80
2018-09-22T04:47:21.398Z,38.80
2018-09-22T04:49:49.632Z,38.90
2018-09-22T04:52:17.785Z,38.90
2018-09-22T04:54:45.896Z,39.00
2018-09-22T04:57:14.149Z,39.00
2018-09-22T04:59:42.242Z,39.00
2018-09-22T05:02:10.485Z,39.30
2018-09-22T05:04:38.771Z,39.00
2018-09-22T05:07:07.354Z,39.00
2018-09-22T05:09:35.464Z,39.10
2018-09-22T05:12:03.573Z,39.00
2018-09-22T05:14:31.671Z,39.00
2018-09-22T05:16:59.991Z,39.00
2018-09-22T05:19:28.061Z,39.10
2018-09-22T05:21:56.149Z,39.10
2018-09-22T05:24:24.250Z,39.10
2018-09-22T05:26:52.381Z,39.10
2018-09-22T05:29:20.547Z,39.10
2018-09-22T05:31:48.671Z,39.10
2018-09-22T05:34:16.805Z,39.10
2018-09-22T05:36:44.905Z,39.10
2018-09-22T05:39:13.038Z,39.10
2018-09-22T05:41:41.214Z,39.20
2018-09-22T05:44:09.529Z,39.20
2018-09-22T05:46:37.697Z,39.20
2018-09-22T05:49:05.907Z,39.20
2018-09-22T05:51:34.025Z,39.10
2018-09-22T05:54:02.184Z,39.10
2018-09-22T05:56:30.283Z,39.10
2018-09-22T05:58:58.389Z,39.30
2018-09-22T06:01:26.523Z,39.20
2018-09-22T06:03:54.890Z,39.20
2018-09-22T06:06:22.904Z,39.20
2018-09-22T06:08:51.025Z,39.20
2018-09-22T06:11:19.225Z,39.20
2018-09-22T06:13:47.693Z,39.20
2018-09-22T06:16:15.872Z,39.20
2018-09-22T06:18:43.964Z,39.20
2018-09-22T06:21:12.097Z,39.20
2018-09-22T06:23:40.222Z,39.20
2018-09-22T06:26:08.398Z,39.20
2018-09-22T06:28:36.575Z,39.20
2018-09-22T06:31:04.765Z,39.20
2018-09-22T06:33:32.892Z,39.30
2018-09-22T06:36:01.736Z,39.20
2018-09-22T06:38:29.933Z,39.20
2018-09-22T06:40:58.032Z,39.20
2018-09-22T06:43:26.210Z,39.20
2018-09-22T06:45:54.373Z,39.20
2018-09-22T06:48:22.604Z,39.30
2018-09-22T06:50:50.772Z,39.30
2018-09-22T06:53:19.254Z,39.40
2018-09-22T06:55:47.397Z,39.40
2018-09-22T06:58:15.520Z,39.40
2018-09-22T07:00:43.635Z,39.40
2018-09-22T07:03:11.808Z,39.50
2018-09-22T07:05:39.980Z,39.40
2018-09-22T07:08:08.133Z,39.40
2018-09-22T07:10:36.289Z,39.50
2018-09-22T07:13:04.438Z,39.40
2018-09-22T07:15:32.539Z,39.40
2018-09-22T07:18:00.708Z,39.50
2018-09-22T07:20:28.824Z,39.50
2018-09-22T07:23:02.368Z,39.60
2018-09-22T07:25:30.716Z,40.20
2018-09-22T07:27:58.875Z,40.20
2018-09-22T07:30:26.989Z,39.50
2018-09-22T07:32:55.199Z,39.50
2018-09-22T07:35:23.337Z,39.60
2018-09-22T07:37:51.483Z,39.60
2018-09-22T07:40:19.632Z,39.70
2018-09-22T07:42:47.816Z,39.70
2018-09-22T07:45:16.038Z,39.70
2018-09-22T07:47:44.131Z,39.70
2018-09-22T07:50:12.647Z,39.70
2018-09-22T07:52:40.740Z,39.70
2018-09-22T07:55:08.948Z,39.70
2018-09-22T07:57:37.081Z,39.70
2018-09-22T08:00:05.442Z,40.40
2018-09-22T08:02:33.554Z,39.80
2018-09-22T08:05:01.660Z,39.80
2018-09-22T08:07:29.837Z,39.80
2018-09-22T08:09:58.120Z,39.80
2018-09-22T08:12:26.256Z,39.70
2018-09-22T08:14:54.422Z,39.60
2018-09-22T08:17:22.529Z,39.50
2018-09-22T08:19:50.630Z,39.50
2018-09-22T08:22:18.849Z,39.50
2018-09-22T08:24:46.979Z,39.70
2018-09-22T08:27:15.208Z,39.70
2018-09-22T08:29:43.396Z,39.80
2018-09-22T08:32:11.552Z,39.90
2018-09-22T08:34:39.756Z,39.80
2018-09-22T08:37:08.099Z,39.90
2018-09-22T08:39:36.009Z,40.60
2018-09-22T08:42:04.085Z,40.00
2018-09-22T08:44:32.321Z,40.00
2018-09-22T08:47:00.446Z,39.80
2018-09-22T08:49:28.720Z,39.90
2018-09-22T08:51:56.805Z,40.00
2018-09-22T08:54:25.007Z,40.80
2018-09-22T08:56:53.294Z,41.00
2018-09-22T08:59:21.378Z,40.40
2018-09-22T09:01:49.480Z,40.40
2018-09-22T09:04:17.620Z,40.50
2018-09-22T09:06:45.772Z,40.40
2018-09-22T09:09:13.894Z,40.30
2018-09-22T09:11:42.181Z,40.50
2018-09-22T09:14:10.323Z,40.70
2018-09-22T09:16:38.477Z,41.00
2018-09-22T09:19:06.569Z,41.70
2018-09-22T09:21:34.658Z,41.00
2018-09-22T09:24:02.909Z,41.10
2018-09-22T09:26:31.095Z,41.20
2018-09-22T09:28:59.205Z,41.60
2018-09-22T09:31:27.327Z,41.40
2018-09-22T09:33:55.410Z,41.10
2018-09-22T09:36:23.601Z,41.20
2018-09-22T09:38:56.291Z,41.20
2018-09-22T09:41:24.408Z,41.30
2018-09-22T09:43:52.554Z,41.60
2018-09-22T09:46:20.726Z,41.50
2018-09-22T09:48:48.832Z,41.40
2018-09-22T09:51:17.153Z,41.70
2018-09-22T09:53:45.777Z,41.80
2018-09-22T09:56:13.916Z,41.40
2018-09-22T09:58:42.028Z,41.40
2018-09-22T10:01:16.780Z,41.40
2018-09-22T10:03:44.877Z,41.30
2018-09-22T10:06:13.104Z,41.20
2018-09-22T10:08:41.290Z,41.10
2018-09-22T10:11:09.395Z,41.20
2018-09-22T10:13:37.561Z,41.00
2018-09-22T10:16:05.680Z,41.20
2018-09-22T10:18:33.855Z,41.60
2018-09-22T10:21:01.960Z,41.10
2018-09-22T10:23:30.090Z,41.30
2018-09-22T10:25:58.228Z,41.30
2018-09-22T10:28:26.383Z,41.20
2018-09-22T10:30:54.532Z,41.30
2018-09-22T10:33:22.628Z,41.20
2018-09-22T10:35:50.775Z,41.00
2018-09-22T10:38:18.908Z,41.20
2018-09-22T10:40:47.123Z,41.70
2018-09-22T10:43:15.252Z,40.80
2018-09-22T10:45:43.322Z,40.80
2018-09-22T10:48:12.017Z,41.30
2018-09-22T10:50:40.157Z,41.70
2018-09-22T10:53:08.368Z,41.20
2018-09-22T10:55:36.405Z,41.10
2018-09-22T10:58:04.581Z,41.10
2018-09-22T11:00:32.777Z,41.00
2018-09-22T11:03:00.956Z,40.90
2018-09-22T11:05:29.100Z,40.90
2018-09-22T11:07:57.196Z,41.00
2018-09-22T11:10:25.609Z,41.00
2018-09-22T11:12:53.762Z,41.10
2018-09-22T11:15:22.003Z,40.90
2018-09-22T11:17:50.393Z,41.00
2018-09-22T11:20:18.525Z,40.50
2018-09-22T11:22:46.640Z,41.20
2018-09-22T11:25:14.808Z,40.90
2018-09-22T11:27:42.949Z,40.50
2018-09-22T11:30:11.064Z,40.20
2018-09-22T11:32:39.238Z,40.00
2018-09-22T11:35:07.503Z,40.00
2018-09-22T11:37:35.633Z,39.90
2018-09-22T11:40:03.774Z,40.90
2018-09-22T11:42:32.115Z,40.00
2018-09-22T11:45:00.990Z,39.40
2018-09-22T11:47:29.139Z,39.60
2018-09-22T11:49:57.374Z,40.30
2018-09-22T11:52:25.693Z,39.50
2018-09-22T11:54:53.805Z,38.90
2018-09-22T11:57:22.144Z,39.00
2018-09-22T11:59:50.268Z,38.90
2018-09-22T12:02:18.441Z,38.80
2018-09-22T12:04:46.668Z,38.50
2018-09-22T12:07:14.826Z,38.80
2018-09-22T12:09:43.026Z,38.70
2018-09-22T12:12:11.222Z,38.40
2018-09-22T12:14:39.370Z,38.50
2018-09-22T12:17:07.584Z,38.70
2018-09-22T12:19:35.768Z,38.70
2018-09-22T12:22:04.331Z,38.50
2018-09-22T12:24:32.608Z,38.50
2018-09-22T12:27:00.804Z,38.50
2018-09-22T12:29:28.961Z,38.40
2018-09-22T12:31:57.173Z,38.60
2018-09-22T12:34:25.267Z,38.30
2018-09-22T12:36:53.444Z,38.20
2018-09-22T12:39:21.616Z,38.50
2018-09-22T12:41:49.729Z,38.50
2018-09-22T12:44:17.896Z,38.40
2018-09-22T12:46:45.983Z,38.50
2018-09-22T12:49:14.221Z,38.50
2018-09-22T12:51:42.457Z,38.60
2018-09-22T12:54:10.581Z,38.90
2018-09-22T12:56:38.717Z,40.20
2018-09-22T12:59:07.011Z,40.70
2018-09-22T13:01:35.889Z,40.80
2018-09-22T13:04:04.232Z,40.80
2018-09-22T13:06:32.396Z,41.00
2018-09-22T13:09:00.734Z,41.10
2018-09-22T13:11:29.079Z,41.50
2018-09-22T13:13:57.344Z,41.80
2018-09-22T13:16:32.317Z,41.80
2018-09-22T13:19:00.907Z,42.00
2018-09-22T13:21:29.306Z,41.90
2018-09-22T13:23:57.648Z,42.00
2018-09-22T13:26:26.035Z,42.10
2018-09-22T13:28:54.294Z,42.00
2018-09-22T13:31:23.754Z,42.20
2018-09-22T13:33:52.177Z,42.00
2018-09-22T13:36:20.420Z,42.20
2018-09-22T13:38:48.595Z,42.40
2018-09-22T13:41:16.709Z,42.50
2018-09-22T13:43:45.263Z,42.60
2018-09-22T13:46:13.378Z,42.70
2018-09-22T13:48:41.734Z,42.70
2018-09-22T13:51:09.856Z,43.00
2018-09-22T13:53:38.015Z,43.00
2018-09-22T13:56:07.285Z,43.00
2018-09-22T13:58:35.382Z,43.00
2018-09-22T14:01:03.545Z,43.30
2018-09-22T14:03:31.797Z,43.30
2018-09-22T14:05:59.845Z,43.20
2018-09-22T14:08:28.031Z,43.40
2018-09-22T14:10:56.131Z,43.40
2018-09-22T14:13:24.308Z,43.50
2018-09-22T14:15:52.405Z,43.70
2018-09-22T14:18:20.787Z,43.60
2018-09-22T14:20:49.798Z,43.90
2018-09-22T14:23:17.932Z,44.40
2018-09-22T14:25:46.171Z,43.80
2018-09-22T14:28:14.347Z,43.70
2018-09-22T14:30:42.481Z,43.60
2018-09-22T14:33:10.745Z,43.90
2018-09-22T14:35:38.942Z,44.00
2018-09-22T14:38:07.389Z,43.90
2018-09-22T14:40:35.551Z,44.00
2018-09-22T14:43:03.638Z,43.80
2018-09-22T14:45:31.749Z,43.80
2018-09-22T14:47:59.920Z,43.50
2018-09-22T14:50:28.038Z,43.10
2018-09-22T14:52:56.337Z,43.50
2018-09-22T14:55:24.572Z,43.60
2018-09-22T14:57:52.733Z,43.20
2018-09-22T15:00:20.966Z,43.00
2018-09-22T15:02:49.072Z,43.80
2018-09-22T15:05:17.219Z,42.90
2018-09-22T15:07:45.529Z,42.80
2018-09-22T15:10:13.637Z,42.70
2018-09-22T15:12:43.869Z,42.70
2018-09-22T15:15:12.011Z,42.80
2018-09-22T15:17:40.240Z,42.90
2018-09-22T15:20:08.348Z,42.90
2018-09-22T15:22:36.452Z,43.30
2018-09-22T15:25:04.618Z,43.00
2018-09-22T15:27:32.830Z,43.20
2018-09-22T15:30:00.998Z,42.40
2018-09-22T15:32:29.178Z,42.40
2018-09-22T15:34:57.288Z,42.50
2018-09-22T15:37:25.407Z,42.40
2018-09-22T15:39:53.544Z,42.30
2018-09-22T15:42:21.677Z,42.30
2018-09-22T15:44:49.817Z,42.30
2018-09-22T15:47:18.007Z,42.20
2018-09-22T15:49:46.180Z,42.40
2018-09-22T15:52:14.371Z,42.30
2018-09-22T15:54:42.421Z,42.20
2018-09-22T15:57:10.536Z,42.30
2018-09-22T15:59:39.099Z,42.30
2018-09-22T16:02:07.474Z,42.30
2018-09-22T16:04:35.633Z,42.50
2018-09-22T16:07:03.763Z,42.80
2018-09-22T16:09:31.863Z,42.40
2018-09-22T16:12:00.212Z,42.30
2018-09-22T16:14:28.369Z,42.20
2018-09-22T16:16:56.546Z,43.00
2018-09-22T16:19:24.689Z,42.50
2018-09-22T16:21:52.847Z,42.30
2018-09-22T16:24:20.966Z,42.40
2018-09-22T16:26:49.182Z,42.40
2018-09-22T16:29:18.085Z,42.90
2018-09-22T16:31:46.440Z,42.60
2018-09-22T16:34:14.601Z,43.30
2018-09-22T16:36:42.705Z,42.80
2018-09-22T16:39:11.758Z,43.50
2018-09-22T16:41:40.237Z,42.90
2018-09-22T16:44:08.465Z,42.90
2018-09-22T16:46:36.893Z,42.90
2018-09-22T16:49:05.079Z,43.10
2018-09-22T16:51:33.520Z,43.10
2018-09-22T16:54:01.761Z,43.10
2018-09-22T16:56:29.867Z,43.00
2018-09-22T16:58:58.046Z,42.60
2018-09-22T17:01:26.294Z,42.70
2018-09-22T17:03:54.452Z,42.60
2018-09-22T17:06:22.562Z,42.60
2018-09-22T17:08:50.662Z,42.60
2018-09-22T17:11:18.782Z,42.30
2018-09-22T17:13:46.910Z,42.30
2018-09-22T17:16:15.138Z,42.10
2018-09-22T17:18:43.133Z,42.00
2018-09-22T17:21:11.287Z,42.10
2018-09-22T17:23:39.666Z,42.10
2018-09-22T17:26:07.777Z,42.20
2018-09-22T17:28:36.217Z,42.10
2018-09-22T17:31:04.381Z,41.90
2018-09-22T17:33:32.563Z,42.00
2018-09-22T17:36:00.829Z,42.00
2018-09-22T17:38:28.956Z,42.00
2018-09-22T17:40:58.099Z,41.90
2018-09-22T17:43:26.233Z,41.90
2018-09-22T17:45:54.370Z,41.90
2018-09-22T17:48:22.518Z,41.90
2018-09-22T17:50:50.696Z,41.80
2018-09-22T17:53:18.896Z,41.80
2018-09-22T17:55:47.706Z,41.90
2018-09-22T17:58:15.955Z,41.80
2018-09-22T18:00:44.078Z,41.80
2018-09-22T18:03:12.284Z,41.80
2018-09-22T18:05:40.427Z,41.90
2018-09-22T18:08:08.589Z,41.90
2018-09-22T18:10:36.696Z,41.90
2018-09-22T18:13:04.857Z,41.90
2018-09-22T18:15:32.984Z,41.90
2018-09-22T18:18:01.187Z,41.90
2018-09-22T18:20:29.295Z,41.90
2018-09-22T18:22:57.421Z,41.80
2018-09-22T18:25:25.664Z,41.80
2018-09-22T18:27:53.705Z,41.80
2018-09-22T18:30:21.933Z,41.70
2018-09-22T18:32:50.319Z,41.70
2018-09-22T18:35:18.425Z,41.70
2018-09-22T18:37:46.567Z,41.80
2018-09-22T18:40:14.739Z,41.30
2018-09-22T18:42:43.027Z,41.90
2018-09-22T18:45:11.139Z,41.90
2018-09-22T18:47:39.259Z,42.00
2018-09-22T18:50:07.581Z,41.90
2018-09-22T18:52:35.742Z,42.00
2018-09-22T18:55:03.829Z,42.00
2018-09-22T18:57:31.969Z,42.20
2018-09-22T19:00:00.244Z,42.20
2018-09-22T19:02:28.563Z,42.20
2018-09-22T19:04:56.830Z,42.20
2018-09-22T19:07:25.015Z,42.60
2018-09-22T19:09:53.185Z,42.80
2018-09-22T19:12:21.365Z,42.90
2018-09-22T19:14:53.952Z,42.60
2018-09-22T19:17:26.874Z,43.30
2018-09-22T19:20:02.340Z,42.60
2018-09-22T19:22:35.355Z,42.70
2018-09-22T19:25:08.371Z,42.90
2018-09-22T19:28:41.668Z,42.80
2018-09-22T19:31:21.003Z,42.70
2018-09-22T19:33:55.609Z,42.70
2018-09-22T19:37:28.138Z,42.80
2018-09-22T19:41:01.485Z,42.90
2018-09-22T19:43:35.065Z,42.80
2018-09-22T19:46:08.000Z,42.90
2018-09-22T19:48:39.740Z,43.00
2018-09-22T19:51:09.738Z,43.40
2018-09-22T19:53:39.327Z,43.50
2018-09-22T19:56:07.485Z,43.60
2018-09-22T19:58:35.665Z,43.50
2018-09-22T20:01:03.804Z,43.40
2018-09-22T20:03:32.605Z,43.40
2018-09-22T20:06:00.708Z,43.50
2018-09-22T20:08:28.830Z,43.50
2018-09-22T20:10:56.960Z,43.60
2018-09-22T20:13:25.356Z,43.70
2018-09-22T20:15:53.518Z,43.70
2018-09-22T20:18:21.659Z,43.80
2018-09-22T20:20:49.983Z,44.00
2018-09-22T20:23:18.202Z,44.00
2018-09-22T20:25:46.300Z,44.20
2018-09-22T20:28:14.448Z,44.10
2018-09-22T20:30:42.563Z,44.10
2018-09-22T20:33:10.692Z,44.20
2018-09-22T20:35:38.821Z,44.30
2018-09-22T20:38:06.964Z,44.40
2018-09-22T20:40:36.071Z,44.50
2018-09-22T20:43:04.313Z,44.30
2018-09-22T20:45:32.458Z,44.40
2018-09-22T20:48:00.689Z,44.30
2018-09-22T20:50:28.919Z,44.40
2018-09-22T20:52:57.032Z,44.40
2018-09-22T20:55:25.158Z,44.30
2018-09-22T20:57:53.284Z,44.40
2018-09-22T21:00:21.425Z,44.40
2018-09-22T21:02:49.784Z,44.30
2018-09-22T21:05:17.895Z,44.40
2018-09-22T21:07:46.019Z,44.20
2018-09-22T21:10:14.142Z,44.40
2018-09-22T21:12:42.314Z,44.30
2018-09-22T21:15:10.423Z,44.20
2018-09-22T21:17:38.531Z,44.20
2018-09-22T21:20:06.787Z,44.10
2018-09-22T21:22:34.908Z,44.00
2018-09-22T21:25:03.031Z,44.00
2018-09-22T21:27:31.176Z,44.00
2018-09-22T21:29:59.285Z,44.00
2018-09-22T21:32:27.385Z,44.00
2018-09-22T21:34:55.610Z,44.00
2018-09-22T21:37:23.717Z,43.90
2018-09-22T21:39:51.872Z,43.90
2018-09-22T21:42:19.987Z,44.00
2018-09-22T21:44:48.177Z,43.90
2018-09-22T21:47:16.347Z,44.00
2018-09-22T21:49:44.449Z,43.90
2018-09-22T21:52:13.366Z,43.90
2018-09-22T21:54:41.488Z,44.00
2018-09-22T21:57:09.615Z,43.90
2018-09-22T21:59:37.737Z,43.90
2018-09-22T22:02:05.861Z,43.90
2018-09-22T22:04:34.002Z,43.90
2018-09-22T22:07:02.109Z,44.00
2018-09-22T22:09:30.290Z,43.90
2018-09-22T22:11:58.417Z,44.00
2018-09-22T22:14:26.546Z,44.00
2018-09-22T22:16:54.661Z,43.90
2018-09-22T22:19:23.013Z,43.90
2018-09-22T22:21:51.142Z,43.90
2018-09-22T22:24:19.242Z,43.80
2018-09-22T22:26:47.358Z,43.80
2018-09-22T22:29:15.525Z,43.80
2018-09-22T22:31:43.679Z,43.80
2018-09-22T22:34:11.750Z,43.70
2018-09-22T22:36:39.840Z,43.70
2018-09-22T22:39:07.966Z,43.70
2018-09-22T22:41:36.143Z,43.60
2018-09-22T22:44:04.284Z,43.60
2018-09-22T22:46:32.369Z,43.60
2018-09-22T22:49:00.526Z,43.60
2018-09-22T22:51:28.727Z,43.60
2018-09-22T22:53:56.842Z,43.70
2018-09-22T22:56:24.937Z,43.60
2018-09-22T22:58:53.174Z,43.50
2018-09-22T23:01:21.270Z,43.50
2018-09-22T23:03:49.398Z,43.50
2018-09-22T23:06:17.507Z,43.50
2018-09-22T23:08:45.597Z,43.50
2018-09-22T23:11:13.700Z,43.40
2018-09-22T23:13:42.033Z,43.50
2018-09-22T23:16:10.124Z,43.40
2018-09-22T23:18:38.311Z,43.30
2018-09-22T23:21:06.501Z,43.40
2018-09-22T23:23:34.649Z,43.30
2018-09-22T23:26:02.733Z,43.30
2018-09-22T23:28:30.955Z,43.30
2018-09-22T23:30:59.117Z,43.70
2018-09-22T23:33:27.223Z,43.10
2018-09-22T23:35:55.909Z,43.20
2018-09-22T23:38:24.165Z,43.10
2018-09-22T23:40:52.279Z,43.10
2018-09-22T23:43:20.357Z,43.10
2018-09-22T23:45:48.500Z,43.10
2018-09-22T23:48:16.649Z,43.00
2018-09-22T23:50:44.811Z,43.00
2018-09-22T23:53:12.988Z,43.00
2018-09-22T23:55:41.088Z,43.00
2018-09-22T23:58:09.269Z,42.90
